createdAt,value
2023-05-25T00:01:16.572Z,98632.81
2023-05-25T00:03:49.511Z,98632.66
2023-05-25T00:06:22.682Z,98629.25
2023-05-25T00:08:55.513Z,98630.09
2023-05-25T00:11:28.305Z,98625.44
2023-05-25T00:14:00.589Z,98631.03
2023-05-25T00:16:37.902Z,98623.47
2023-05-25T00:19:12.450Z,98624.34
2023-05-25T00:21:48.736Z,98626.00
2023-05-25T00:24:20.863Z,98617.31
2023-05-25T00:26:53.683Z,98616.50
2023-05-25T00:29:26.203Z,98610.50
2023-05-25T00:31:59.168Z,98620.69
2023-05-25T00:34:31.075Z,98620.91
2023-05-25T00:37:04.035Z,98614.34
2023-05-25T00:39:36.095Z,98609.91
2023-05-25T00:42:08.986Z,98606.06
2023-05-25T00:44:40.908Z,98596.19
2023-05-25T00:47:14.073Z,98616.13
2023-05-25T00:49:46.128Z,98624.41
2023-05-25T00:52:40.921Z,98611.88
2023-05-25T00:55:19.247Z,98601.59
2023-05-25T00:57:54.030Z,98603.56
2023-05-25T01:00:29.079Z,98610.56
2023-05-25T01:03:04.334Z,98610.44
2023-05-25T01:05:38.876Z,98602.22
2023-05-25T01:08:14.054Z,98606.44
2023-05-25T01:10:50.539Z,98611.03
2023-05-25T01:13:22.974Z,98615.19
2023-05-25T01:15:56.764Z,98613.81
2023-05-25T01:18:28.784Z,98605.41
2023-05-25T01:21:15.297Z,98594.81
2023-05-25T01:24:00.289Z,98609.03
2023-05-25T01:26:50.790Z,98600.47
2023-05-25T01:29:26.723Z,98603.78
2023-05-25T01:31:59.409Z,98609.00
2023-05-25T01:34:32.999Z,98603.75
2023-05-25T01:37:05.447Z,98603.50
2023-05-25T01:39:42.137Z,98612.25
2023-05-25T01:42:14.643Z,98602.66
2023-05-25T01:44:47.687Z,98607.22
2023-05-25T01:47:37.593Z,98597.22
2023-05-25T01:50:37.634Z,98598.91
2023-05-25T01:53:19.709Z,98604.66
2023-05-25T01:56:00.563Z,98594.81
2023-05-25T01:58:41.004Z,98601.69
2023-05-25T02:01:16.396Z,98598.31
2023-05-25T02:03:49.482Z,98599.78
2023-05-25T02:06:22.441Z,98583.75
2023-05-25T02:08:54.387Z,98583.84
2023-05-25T02:11:28.206Z,98586.25
2023-05-25T02:14:00.185Z,98585.13
2023-05-25T02:16:34.787Z,98579.66
2023-05-25T02:19:07.257Z,98592.06
2023-05-25T02:21:40.156Z,98586.00
2023-05-25T02:24:12.187Z,98576.50
2023-05-25T02:26:45.048Z,98577.91
2023-05-25T02:29:17.915Z,98574.38
2023-05-25T02:31:50.761Z,98588.00
2023-05-25T02:34:22.777Z,98584.56
2023-05-25T02:36:55.720Z,98584.66
2023-05-25T02:39:28.513Z,98576.25
2023-05-25T02:42:03.573Z,98576.47
2023-05-25T02:44:35.785Z,98582.59
2023-05-25T02:47:09.157Z,98577.91
2023-05-25T02:49:41.210Z,98576.16
2023-05-25T02:52:15.035Z,98569.47
2023-05-25T02:54:47.535Z,98574.38
2023-05-25T02:57:27.372Z,98568.97
2023-05-25T02:59:59.796Z,98567.34
2023-05-25T03:02:35.484Z,98577.53
2023-05-25T03:05:08.687Z,98577.28
2023-05-25T03:07:43.640Z,98573.97
2023-05-25T03:10:15.628Z,98583.84
2023-05-25T03:12:49.891Z,98584.31
2023-05-25T03:15:23.143Z,98586.63
2023-05-25T03:18:01.643Z,98598.28
2023-05-25T03:20:37.795Z,98593.13
2023-05-25T03:23:10.907Z,98590.56
2023-05-25T03:25:44.472Z,98591.84
2023-05-25T03:28:17.592Z,98597.00
2023-05-25T03:30:49.755Z,98600.34
2023-05-25T03:33:23.052Z,98595.94
2023-05-25T03:35:55.736Z,98600.31
2023-05-25T03:38:29.530Z,98599.50
2023-05-25T03:41:02.311Z,98602.84
2023-05-25T03:43:34.817Z,98605.44
2023-05-25T03:46:10.071Z,98616.66
2023-05-25T03:48:42.971Z,98608.06
2023-05-25T03:51:14.940Z,98616.63
2023-05-25T03:53:47.749Z,98616.00
2023-05-25T03:56:19.689Z,98614.69
2023-05-25T03:58:53.320Z,98610.72
2023-05-25T04:01:26.568Z,98618.00
2023-05-25T04:03:59.532Z,98611.41
2023-05-25T04:06:31.623Z,98619.97
2023-05-25T04:09:07.586Z,98621.94
2023-05-25T04:11:39.574Z,98614.00
2023-05-25T04:14:13.041Z,98602.22
2023-05-25T04:16:47.232Z,98609.28
2023-05-25T04:19:21.828Z,98598.59
2023-05-25T04:21:54.320Z,98603.06
2023-05-25T04:24:28.037Z,98600.97
2023-05-25T04:27:02.306Z,98609.63
2023-05-25T04:29:35.187Z,98607.16
2023-05-25T04:32:29.859Z,98610.78
2023-05-25T04:35:28.907Z,98622.00
2023-05-25T04:38:02.909Z,98627.94
2023-05-25T04:40:36.417Z,98629.22
2023-05-25T04:43:11.194Z,98631.81
2023-05-25T04:45:46.401Z,98636.41
2023-05-25T04:48:19.353Z,98648.31
2023-05-25T04:50:55.822Z,98639.72
2023-05-25T04:53:27.819Z,98644.34
2023-05-25T04:56:01.008Z,98636.41
2023-05-25T04:58:33.578Z,98640.31
2023-05-25T05:01:06.923Z,98638.34
2023-05-25T05:03:38.925Z,98644.25
2023-05-25T05:06:11.992Z,98645.63
2023-05-25T05:08:44.039Z,98650.25
2023-05-25T05:11:16.937Z,98647.63
2023-05-25T05:13:49.813Z,98658.84
2023-05-25T05:16:23.304Z,98663.41
2023-05-25T05:18:55.501Z,98651.56
2023-05-25T05:21:28.948Z,98658.19
2023-05-25T05:24:00.953Z,98666.09
2023-05-25T05:26:44.246Z,98664.75
2023-05-25T05:29:21.450Z,98666.06
2023-05-25T05:31:56.399Z,98665.44
2023-05-25T05:34:29.045Z,98665.44
2023-05-25T05:37:02.616Z,98660.19
2023-05-25T05:39:35.227Z,98668.78
2023-05-25T05:42:08.664Z,98671.41
2023-05-25T05:44:41.049Z,98663.53
2023-05-25T05:47:13.913Z,98662.19
2023-05-25T05:49:47.378Z,98664.81
2023-05-25T05:52:20.443Z,98658.91
2023-05-25T05:54:52.409Z,98657.63
2023-05-25T05:57:26.648Z,98655.00
2023-05-25T05:59:58.664Z,98649.75
2023-05-25T06:02:31.589Z,98647.13
2023-05-25T06:05:04.315Z,98645.13
2023-05-25T06:07:38.486Z,98640.53
2023-05-25T06:10:10.667Z,98636.13
2023-05-25T06:12:43.623Z,98623.53
2023-05-25T06:15:16.267Z,98631.44
2023-05-25T06:17:51.170Z,98628.75
2023-05-25T06:20:24.034Z,98644.94
2023-05-25T06:22:57.382Z,98644.38
2023-05-25T06:25:29.451Z,98643.75
2023-05-25T06:28:02.762Z,98647.06
2023-05-25T06:30:34.724Z,98655.66
2023-05-25T06:33:09.124Z,98657.53
2023-05-25T06:35:42.042Z,98663.47
2023-05-25T06:38:15.708Z,98652.56
2023-05-25T06:40:48.105Z,98645.59
2023-05-25T06:43:21.797Z,98640.72
2023-05-25T06:46:05.224Z,98647.81
2023-05-25T06:48:39.321Z,98649.50
2023-05-25T06:51:11.354Z,98640.91
2023-05-25T06:53:44.591Z,98659.38
2023-05-25T06:56:16.967Z,98659.41
2023-05-25T06:58:50.920Z,98660.94
2023-05-25T07:01:23.398Z,98646.34
2023-05-25T07:03:56.243Z,98650.44
2023-05-25T07:06:28.769Z,98663.63
2023-05-25T07:09:01.621Z,98678.16
2023-05-25T07:11:33.628Z,98671.91
2023-05-25T07:14:06.770Z,98671.63
2023-05-25T07:16:38.772Z,98677.38
2023-05-25T07:19:12.136Z,98683.72
2023-05-25T07:21:44.202Z,98679.41
2023-05-25T07:24:17.055Z,98680.56
2023-05-25T07:26:49.757Z,98683.47
2023-05-25T07:29:22.626Z,98672.22
2023-05-25T07:31:54.694Z,98679.53
2023-05-25T07:34:27.998Z,98680.16
2023-05-25T07:37:00.170Z,98678.50
2023-05-25T07:39:33.137Z,98671.41
2023-05-25T07:42:06.025Z,98679.13
2023-05-25T07:44:39.274Z,98702.19
2023-05-25T07:47:11.691Z,98699.03
2023-05-25T07:49:44.555Z,98704.88
2023-05-25T07:52:16.784Z,98707.75
2023-05-25T07:54:49.658Z,98694.81
2023-05-25T07:57:22.064Z,98698.75
2023-05-25T07:59:54.921Z,98692.25
2023-05-25T08:02:27.198Z,98704.22
2023-05-25T08:05:05.600Z,98700.66
2023-05-25T08:07:38.633Z,98699.81
2023-05-25T08:10:12.922Z,98697.03
2023-05-25T08:12:49.589Z,98692.31
2023-05-25T08:15:23.702Z,98694.84
2023-05-25T08:17:56.860Z,98692.66
2023-05-25T08:20:30.509Z,98690.28
2023-05-25T08:23:02.607Z,98696.50
2023-05-25T08:25:36.106Z,98688.94
2023-05-25T08:28:08.538Z,98690.81
2023-05-25T08:30:41.723Z,98684.59
2023-05-25T08:33:14.806Z,98679.66
2023-05-25T08:35:50.351Z,98676.03
2023-05-25T08:38:25.805Z,98681.16
2023-05-25T08:41:07.279Z,98678.50
2023-05-25T08:43:41.514Z,98676.81
2023-05-25T08:46:15.566Z,98687.16
2023-05-25T08:48:50.817Z,98677.50
2023-05-25T08:51:23.845Z,98682.78
2023-05-25T08:53:59.792Z,98672.16
2023-05-25T08:56:41.761Z,98674.22
2023-05-25T08:59:58.123Z,98687.94
2023-05-25T09:03:09.871Z,98695.34
2023-05-25T09:05:42.713Z,98691.69
2023-05-25T09:08:16.657Z,98695.78
2023-05-25T09:10:49.783Z,98699.25
2023-05-25T09:13:23.224Z,98705.06
2023-05-25T09:15:55.878Z,98693.72
2023-05-25T09:18:29.264Z,98705.16
2023-05-25T09:21:03.034Z,98703.47
2023-05-25T09:23:37.750Z,98698.13
2023-05-25T09:26:09.809Z,98711.66
2023-05-25T09:28:47.814Z,98710.22
2023-05-25T09:31:19.836Z,98709.84
2023-05-25T09:34:00.673Z,98711.97
2023-05-25T09:36:37.215Z,98713.59
2023-05-25T09:39:11.898Z,98717.28
2023-05-25T09:41:44.078Z,98726.84
2023-05-25T09:44:17.791Z,98725.06
2023-05-25T09:46:49.969Z,98706.94
2023-05-25T09:49:24.396Z,98727.88
2023-05-25T09:51:56.920Z,98727.41
2023-05-25T09:54:29.885Z,98733.16
2023-05-25T09:57:05.527Z,98726.72
2023-05-25T09:59:40.112Z,98739.03
2023-05-25T10:02:14.288Z,98729.59
2023-05-25T10:04:47.067Z,98735.66
2023-05-25T10:07:20.875Z,98740.22
2023-05-25T10:09:56.145Z,98742.03
2023-05-25T10:12:30.031Z,98747.50
2023-05-25T10:15:04.660Z,98741.38
2023-05-25T10:17:54.061Z,98737.81
2023-05-25T10:20:29.080Z,98740.31
2023-05-25T10:23:11.474Z,98751.78
2023-05-25T10:25:51.160Z,98749.66
2023-05-25T10:28:31.470Z,98749.28
2023-05-25T10:31:05.563Z,98751.03
2023-05-25T10:33:38.628Z,98757.47
2023-05-25T10:36:13.688Z,98770.81
2023-05-25T10:38:53.954Z,98754.97
2023-05-25T10:41:26.693Z,98770.53
2023-05-25T10:44:00.210Z,98772.72
2023-05-25T10:46:32.336Z,98767.84
2023-05-25T10:49:06.216Z,98766.81
2023-05-25T10:51:39.929Z,98763.19
2023-05-25T10:54:15.381Z,98763.72
2023-05-25T10:57:12.740Z,98759.91
2023-05-25T10:59:51.875Z,98765.88
2023-05-25T11:02:24.555Z,98766.59
2023-05-25T11:05:28.192Z,98767.25
2023-05-25T11:08:02.124Z,98771.41
2023-05-25T11:10:50.014Z,98773.81
2023-05-25T11:13:31.663Z,98780.63
2023-05-25T11:16:40.995Z,98774.44
2023-05-25T11:19:15.576Z,98765.22
2023-05-25T11:21:49.663Z,98773.53
2023-05-25T11:24:22.028Z,98776.28
2023-05-25T11:27:01.784Z,98777.38
2023-05-25T11:29:36.190Z,98770.78
2023-05-25T11:32:15.545Z,98776.44
2023-05-25T11:34:47.976Z,98770.22
2023-05-25T11:37:25.154Z,98769.47
2023-05-25T11:39:57.706Z,98773.50
2023-05-25T11:42:31.304Z,98760.47
2023-05-25T11:45:03.692Z,98769.75
2023-05-25T11:47:38.013Z,98777.41
2023-05-25T11:50:18.215Z,98771.66
2023-05-25T11:52:50.919Z,98773.28
2023-05-25T11:55:23.691Z,98772.72
2023-05-25T11:57:57.867Z,98775.22
2023-05-25T12:00:30.444Z,98776.72
2023-05-25T12:03:02.723Z,98771.44
2023-05-25T12:05:41.809Z,98772.34
2023-05-25T12:08:14.112Z,98757.63
2023-05-25T12:10:52.348Z,98777.19
2023-05-25T12:13:24.848Z,98764.41
2023-05-25T12:15:58.173Z,98766.94
2023-05-25T12:18:30.576Z,98766.28
2023-05-25T12:21:08.473Z,98756.25
2023-05-25T12:23:40.660Z,98756.97
2023-05-25T12:26:15.644Z,98765.09
2023-05-25T12:29:07.027Z,98759.09
2023-05-25T12:31:45.893Z,98763.19
2023-05-25T12:34:20.417Z,98759.78
2023-05-25T12:36:55.365Z,98760.13
2023-05-25T12:39:30.495Z,98767.09
2023-05-25T12:42:03.936Z,98772.56
2023-05-25T12:44:37.371Z,98764.97
2023-05-25T12:47:20.385Z,98754.22
2023-05-25T12:49:55.057Z,98745.19
2023-05-25T12:52:39.829Z,98769.41
2023-05-25T12:55:28.104Z,98769.09
2023-05-25T12:58:06.330Z,98755.19
2023-05-25T13:00:41.114Z,98754.28
2023-05-25T13:03:13.914Z,98751.78
2023-05-25T13:05:46.699Z,98765.47
2023-05-25T13:08:19.349Z,98749.03
2023-05-25T13:10:51.646Z,98740.19
2023-05-25T13:13:24.593Z,98743.06
2023-05-25T13:15:58.372Z,98740.94
2023-05-25T13:18:31.615Z,98752.72
2023-05-25T13:21:03.842Z,98741.75
2023-05-25T13:23:37.044Z,98749.03
2023-05-25T13:26:09.492Z,98744.19
2023-05-25T13:28:42.480Z,98739.31
2023-05-25T13:31:14.902Z,98738.63
2023-05-25T13:33:47.546Z,98731.16
2023-05-25T13:36:19.940Z,98731.06
2023-05-25T13:38:52.976Z,98744.78
2023-05-25T13:41:25.033Z,98740.72
2023-05-25T13:43:58.117Z,98744.47
2023-05-25T13:46:35.098Z,98743.16
2023-05-25T13:49:08.168Z,98735.72
2023-05-25T13:51:41.450Z,98738.50
2023-05-25T13:54:14.165Z,98731.97
2023-05-25T13:56:46.247Z,98737.31
2023-05-25T13:59:19.293Z,98751.25
2023-05-25T14:01:53.172Z,98746.63
2023-05-25T14:04:28.012Z,98748.19
2023-05-25T14:07:01.176Z,98739.88
2023-05-25T14:09:34.525Z,98742.00
2023-05-25T14:12:07.819Z,98736.19
2023-05-25T14:14:40.994Z,98738.44
2023-05-25T14:17:13.007Z,98735.03
2023-05-25T14:19:46.029Z,98735.78
2023-05-25T14:22:19.220Z,98734.81
2023-05-25T14:24:51.697Z,98746.22
2023-05-25T14:27:23.720Z,98744.59
2023-05-25T14:29:56.372Z,98740.41
2023-05-25T14:32:28.383Z,98741.16
2023-05-25T14:35:01.026Z,98745.72
2023-05-25T14:37:33.528Z,98748.31
2023-05-25T14:40:07.001Z,98747.34
2023-05-25T14:42:38.977Z,98743.59
2023-05-25T14:45:13.428Z,98741.16
2023-05-25T14:47:47.481Z,98744.47
2023-05-25T14:50:20.202Z,98741.22
2023-05-25T14:52:52.276Z,98729.38
2023-05-25T14:55:24.995Z,98737.91
2023-05-25T14:57:57.015Z,98746.63
2023-05-25T15:00:31.270Z,98750.06
2023-05-25T15:03:03.829Z,98756.34
2023-05-25T15:05:36.900Z,98752.63
2023-05-25T15:08:08.902Z,98746.56
2023-05-25T15:10:41.474Z,98750.59
2023-05-25T15:13:14.050Z,98756.69
2023-05-25T15:15:47.013Z,98752.28
2023-05-25T15:18:19.242Z,98745.59
2023-05-25T15:20:51.979Z,98740.31
2023-05-25T15:23:24.593Z,98744.34
2023-05-25T15:25:57.709Z,98741.56
2023-05-25T15:28:30.601Z,98749.44
2023-05-25T15:31:03.599Z,98755.91
2023-05-25T15:33:51.605Z,98743.09
2023-05-25T15:36:29.134Z,98753.69
2023-05-25T15:39:01.436Z,98755.88
2023-05-25T15:41:34.018Z,98752.78
2023-05-25T15:44:08.319Z,98759.13
2023-05-25T15:46:41.729Z,98753.78
2023-05-25T15:49:13.863Z,98762.19
2023-05-25T15:51:46.569Z,98764.34
2023-05-25T15:54:18.944Z,98757.47
2023-05-25T15:56:51.960Z,98776.59
2023-05-25T15:59:24.340Z,98777.53
2023-05-25T16:01:56.973Z,98788.47
2023-05-25T16:04:29.118Z,98779.97
2023-05-25T16:07:02.064Z,98775.53
2023-05-25T16:09:34.598Z,98777.13
2023-05-25T16:12:07.643Z,98771.94
2023-05-25T16:14:40.649Z,98779.94
2023-05-25T16:17:14.445Z,98773.50
2023-05-25T16:19:48.480Z,98773.63
2023-05-25T16:22:21.204Z,98778.03
2023-05-25T16:24:53.188Z,98770.50
2023-05-25T16:27:25.793Z,98775.41
2023-05-25T16:29:57.793Z,98774.44
2023-05-25T16:32:30.830Z,98778.38
2023-05-25T16:35:02.981Z,98784.31
2023-05-25T16:37:35.740Z,98774.78
2023-05-25T16:40:08.941Z,98774.13
2023-05-25T16:42:41.883Z,98784.34
2023-05-25T16:45:13.948Z,98773.84
2023-05-25T16:47:46.533Z,98773.09
2023-05-25T16:50:18.720Z,98769.84
2023-05-25T16:52:51.834Z,98777.31
2023-05-25T16:55:24.181Z,98766.53
2023-05-25T16:57:56.848Z,98770.69
2023-05-25T17:00:28.906Z,98768.47
2023-05-25T17:03:01.577Z,98773.56
2023-05-25T17:05:33.651Z,98770.41
2023-05-25T17:08:06.770Z,98767.03
2023-05-25T17:10:39.202Z,98766.84
2023-05-25T17:13:12.177Z,98780.78
2023-05-25T17:15:44.490Z,98773.31
2023-05-25T17:18:17.734Z,98782.75
2023-05-25T17:20:49.783Z,98777.47
2023-05-25T17:23:22.759Z,98782.84
2023-05-25T17:25:54.832Z,98777.94
2023-05-25T17:28:29.125Z,98779.72
2023-05-25T17:31:02.284Z,98771.06
2023-05-25T17:33:34.985Z,98781.66
2023-05-25T17:36:07.558Z,98786.09
2023-05-25T17:38:41.453Z,98789.25
2023-05-25T17:41:13.434Z,98788.50
2023-05-25T17:43:46.486Z,98794.78
2023-05-25T17:46:18.958Z,98805.88
2023-05-25T17:48:51.562Z,98798.66
2023-05-25T17:51:23.685Z,98803.50
2023-05-25T17:53:58.013Z,98809.25
2023-05-25T17:56:29.958Z,98809.31
2023-05-25T17:59:03.882Z,98815.59
2023-05-25T18:01:36.158Z,98820.44
2023-05-25T18:04:09.054Z,98820.06
2023-05-25T18:06:41.192Z,98820.38
2023-05-25T18:09:14.236Z,98820.47
2023-05-25T18:11:47.019Z,98823.41
2023-05-25T18:14:19.844Z,98817.25
2023-05-25T18:16:51.952Z,98819.38
2023-05-25T18:19:24.644Z,98826.63
2023-05-25T18:21:56.692Z,98823.75
2023-05-25T18:24:29.401Z,98822.31
2023-05-25T18:27:03.697Z,98831.03
2023-05-25T18:29:36.351Z,98825.31
2023-05-25T18:32:08.500Z,98833.53
2023-05-25T18:34:42.163Z,98833.84
2023-05-25T18:37:14.936Z,98827.56
2023-05-25T18:39:48.028Z,98830.50
2023-05-25T18:42:20.074Z,98829.09
2023-05-25T18:44:52.730Z,98831.78
2023-05-25T18:47:25.123Z,98835.94
2023-05-25T18:49:57.791Z,98845.13
2023-05-25T18:52:29.791Z,98842.81
2023-05-25T18:55:02.498Z,98847.47
2023-05-25T18:57:34.873Z,98849.81
2023-05-25T19:00:09.601Z,98845.28
2023-05-25T19:02:42.816Z,98850.13
2023-05-25T19:05:15.277Z,98847.22
2023-05-25T19:07:58.284Z,98848.38
2023-05-25T19:10:31.548Z,98857.09
2023-05-25T19:13:04.579Z,98853.91
2023-05-25T19:15:39.776Z,98855.41
2023-05-25T19:18:12.395Z,98862.72
2023-05-25T19:20:44.590Z,98860.28
2023-05-25T19:23:19.699Z,98857.56
2023-05-25T19:25:51.668Z,98861.44
2023-05-25T19:28:26.993Z,98863.28
2023-05-25T19:30:58.916Z,98862.03
2023-05-25T19:33:34.795Z,98867.38
2023-05-25T19:36:07.391Z,98868.13
2023-05-25T19:38:41.889Z,98868.44
2023-05-25T19:41:14.905Z,98870.81
2023-05-25T19:43:50.961Z,98877.66
2023-05-25T19:46:23.278Z,98878.56
2023-05-25T19:48:58.061Z,98894.13
2023-05-25T19:51:31.130Z,98886.59
2023-05-25T19:54:04.189Z,98900.66
2023-05-25T19:56:36.210Z,98900.25
2023-05-25T19:59:08.850Z,98902.00
2023-05-25T20:01:40.875Z,98904.28
2023-05-25T20:04:13.730Z,98910.94
2023-05-25T20:06:45.952Z,98905.06
2023-05-25T20:09:18.967Z,98912.53
2023-05-25T20:11:51.053Z,98917.41
2023-05-25T20:14:23.833Z,98918.25
2023-05-25T20:16:56.101Z,98916.41
2023-05-25T20:19:29.214Z,98918.91
2023-05-25T20:22:02.181Z,98919.97
2023-05-25T20:24:34.689Z,98934.22
2023-05-25T20:27:07.364Z,98930.47
2023-05-25T20:29:39.344Z,98924.69
2023-05-25T20:32:14.853Z,98922.81
2023-05-25T20:34:46.902Z,98932.28
2023-05-25T20:37:19.535Z,98935.56
2023-05-25T20:39:51.531Z,98934.38
2023-05-25T20:42:23.906Z,98938.44
2023-05-25T20:44:56.177Z,98942.50
2023-05-25T20:47:28.887Z,98939.91
2023-05-25T20:50:00.894Z,98936.72
2023-05-25T20:52:34.062Z,98926.69
2023-05-25T20:55:06.515Z,98936.25
2023-05-25T20:57:39.227Z,98926.88
2023-05-25T21:00:12.079Z,98930.41
2023-05-25T21:02:45.010Z,98939.91
2023-05-25T21:05:17.519Z,98946.84
2023-05-25T21:07:51.280Z,98940.03
2023-05-25T21:10:23.294Z,98938.28
2023-05-25T21:12:55.982Z,98940.38
2023-05-25T21:15:28.408Z,98940.25
2023-05-25T21:18:00.657Z,98952.28
2023-05-25T21:20:34.121Z,98952.66
2023-05-25T21:23:07.032Z,98949.84
2023-05-25T21:25:40.957Z,98952.13
2023-05-25T21:28:12.957Z,98951.47
2023-05-25T21:30:46.482Z,98955.38
2023-05-25T21:33:18.880Z,98956.25
2023-05-25T21:35:51.485Z,98958.88
2023-05-25T21:38:23.452Z,98956.00
2023-05-25T21:40:56.233Z,98957.28
2023-05-25T21:43:28.564Z,98962.69
2023-05-25T21:46:00.870Z,98959.13
2023-05-25T21:48:33.234Z,98960.06
2023-05-25T21:51:06.072Z,98959.69
2023-05-25T21:53:38.812Z,98961.41
2023-05-25T21:56:10.943Z,98963.09
2023-05-25T21:58:43.020Z,98958.63
2023-05-25T22:01:15.737Z,98962.47
2023-05-25T22:03:47.838Z,98952.47
2023-05-25T22:06:20.440Z,98957.81
2023-05-25T22:08:52.387Z,98957.66
2023-05-25T22:11:26.260Z,98955.97
2023-05-25T22:13:58.294Z,98956.47
2023-05-25T22:16:31.044Z,98964.63
2023-05-25T22:19:03.379Z,98962.91
2023-05-25T22:21:37.575Z,98958.72
2023-05-25T22:24:09.531Z,98964.41
2023-05-25T22:26:42.119Z,98955.44
2023-05-25T22:29:14.040Z,98970.22
2023-05-25T22:31:46.811Z,98965.28
2023-05-25T22:34:18.845Z,98968.78
2023-05-25T22:36:51.547Z,98966.88
2023-05-25T22:39:23.582Z,98960.59
2023-05-25T22:41:56.329Z,98973.06
2023-05-25T22:44:28.379Z,98969.13
2023-05-25T22:47:01.038Z,98972.63
2023-05-25T22:49:44.167Z,98967.78
2023-05-25T22:52:17.209Z,98963.97
2023-05-25T22:54:49.794Z,98956.97
2023-05-25T22:57:22.804Z,98955.97
2023-05-25T22:59:54.741Z,98959.38
2023-05-25T23:02:27.662Z,98957.50
2023-05-25T23:04:59.772Z,98957.34
2023-05-25T23:07:32.820Z,98953.97
2023-05-25T23:10:05.242Z,98954.41
2023-05-25T23:12:37.862Z,98944.94
2023-05-25T23:15:11.288Z,98942.56
2023-05-25T23:17:43.271Z,98946.16
2023-05-25T23:20:16.160Z,98955.66
2023-05-25T23:22:48.764Z,98945.25
2023-05-25T23:25:21.510Z,98945.47
2023-05-25T23:27:53.467Z,98952.59
2023-05-25T23:30:26.122Z,98947.66
2023-05-25T23:32:58.169Z,98941.22
2023-05-25T23:35:30.770Z,98949.78
2023-05-25T23:38:03.122Z,98946.03
2023-05-25T23:40:35.848Z,98953.78
2023-05-25T23:43:08.192Z,98946.66
2023-05-25T23:45:40.805Z,98950.03
2023-05-25T23:48:12.819Z,98951.06
2023-05-25T23:50:45.681Z,98955.00
2023-05-25T23:55:50.645Z,98952.56
2023-05-25T23:58:22.609Z,98955.31
